sensor_id;sensor_type;location;lat;lon;timestamp;temperature;humidity
12446;DHT22;6287;50.984;7.022;2023-04-24T00:01:09;11.90;99.90
12446;DHT22;6287;50.984;7.022;2023-04-24T00:03:41;11.90;99.90
12446;DHT22;6287;50.984;7.022;2023-04-24T00:06:08;11.90;99.90
12446;DHT22;6287;50.984;7.022;2023-04-24T00:08:35;11.90;99.90
12446;DHT22;6287;50.984;7.022;2023-04-24T00:11:02;11.90;99.90
12446;DHT22;6287;50.984;7.022;2023-04-24T00:13:31;11.90;99.90
12446;DHT22;6287;50.984;7.022;2023-04-24T00:15:57;12.00;99.90
12446;DHT22;6287;50.984;7.022;2023-04-24T00:18:23;12.00;99.90
12446;DHT22;6287;50.984;7.022;2023-04-24T00:20:48;11.90;99.90
12446;DHT22;6287;50.984;7.022;2023-04-24T00:23:19;11.90;99.90
12446;DHT22;6287;50.984;7.022;2023-04-24T00:25:44;11.90;99.90
12446;DHT22;6287;50.984;7.022;2023-04-24T00:28:10;11.90;99.90
12446;DHT22;6287;50.984;7.022;2023-04-24T00:30:40;11.90;99.90
12446;DHT22;6287;50.984;7.022;2023-04-24T00:33:07;11.90;99.90
12446;DHT22;6287;50.984;7.022;2023-04-24T00:35:35;11.90;99.90
12446;DHT22;6287;50.984;7.022;2023-04-24T00:38:03;11.90;99.90
12446;DHT22;6287;50.984;7.022;2023-04-24T00:40:29;11.80;99.90
12446;DHT22;6287;50.984;7.022;2023-04-24T00:42:55;11.90;99.90
12446;DHT22;6287;50.984;7.022;2023-04-24T00:45:21;11.90;99.90
12446;DHT22;6287;50.984;7.022;2023-04-24T00:47:48;12.00;99.90
12446;DHT22;6287;50.984;7.022;2023-04-24T00:50:15;11.90;99.90
12446;DHT22;6287;50.984;7.022;2023-04-24T00:52:41;11.90;99.90
12446;DHT22;6287;50.984;7.022;2023-04-24T00:55:07;11.90;99.90
12446;DHT22;6287;50.984;7.022;2023-04-24T00:57:33;11.90;99.90
12446;DHT22;6287;50.984;7.022;2023-04-24T01:00:03;11.80;99.90
12446;DHT22;6287;50.984;7.022;2023-04-24T01:02:33;11.90;99.90
12446;DHT22;6287;50.984;7.022;2023-04-24T01:05:04;12.10;99.90
12446;DHT22;6287;50.984;7.022;2023-04-24T01:07:32;11.80;99.90
12446;DHT22;6287;50.984;7.022;2023-04-24T01:09:57;11.90;99.90
12446;DHT22;6287;50.984;7.022;2023-04-24T01:12:23;11.70;99.90
12446;DHT22;6287;50.984;7.022;2023-04-24T01:14:49;11.60;99.90
12446;DHT22;6287;50.984;7.022;2023-04-24T01:17:16;11.60;99.90
12446;DHT22;6287;50.984;7.022;2023-04-24T01:19:42;11.70;99.90
12446;DHT22;6287;50.984;7.022;2023-04-24T01:22:14;12.10;99.90
12446;DHT22;6287;50.984;7.022;2023-04-24T01:24:40;11.60;99.90
12446;DHT22;6287;50.984;7.022;2023-04-24T01:27:10;11.60;99.90
12446;DHT22;6287;50.984;7.022;2023-04-24T01:29:38;11.50;99.90
12446;DHT22;6287;50.984;7.022;2023-04-24T01:32:13;11.60;99.90
12446;DHT22;6287;50.984;7.022;2023-04-24T01:34:41;11.50;99.90
12446;DHT22;6287;50.984;7.022;2023-04-24T01:37:12;11.50;99.90
12446;DHT22;6287;50.984;7.022;2023-04-24T01:39:37;11.50;99.90
12446;DHT22;6287;50.984;7.022;2023-04-24T01:42:07;11.40;99.90
12446;DHT22;6287;50.984;7.022;2023-04-24T01:44:33;11.40;99.90
12446;DHT22;6287;50.984;7.022;2023-04-24T01:47:02;11.50;99.90
12446;DHT22;6287;50.984;7.022;2023-04-24T01:49:28;11.40;99.90
12446;DHT22;6287;50.984;7.022;2023-04-24T01:51:58;11.20;99.90
12446;DHT22;6287;50.984;7.022;2023-04-24T01:54:24;11.20;99.90
12446;DHT22;6287;50.984;7.022;2023-04-24T01:56:53;11.10;99.90
12446;DHT22;6287;50.984;7.022;2023-04-24T01:59:21;11.10;99.90
12446;DHT22;6287;50.984;7.022;2023-04-24T02:01:48;11.30;99.90
12446;DHT22;6287;50.984;7.022;2023-04-24T02:04:14;11.00;99.90
12446;DHT22;6287;50.984;7.022;2023-04-24T02:06:40;10.80;99.90
12446;DHT22;6287;50.984;7.022;2023-04-24T02:09:08;11.10;99.90
12446;DHT22;6287;50.984;7.022;2023-04-24T02:11:36;10.70;99.90
12446;DHT22;6287;50.984;7.022;2023-04-24T02:14:02;10.70;99.90
12446;DHT22;6287;50.984;7.022;2023-04-24T02:16:30;10.70;99.90
12446;DHT22;6287;50.984;7.022;2023-04-24T02:19:02;10.60;99.90
12446;DHT22;6287;50.984;7.022;2023-04-24T02:21:28;10.80;99.90
12446;DHT22;6287;50.984;7.022;2023-04-24T02:23:54;10.40;99.90
12446;DHT22;6287;50.984;7.022;2023-04-24T02:26:21;10.30;99.90
12446;DHT22;6287;50.984;7.022;2023-04-24T02:28:47;10.30;99.90
12446;DHT22;6287;50.984;7.022;2023-04-24T02:31:15;10.30;99.90
12446;DHT22;6287;50.984;7.022;2023-04-24T02:33:43;10.10;99.90
12446;DHT22;6287;50.984;7.022;2023-04-24T02:36:11;10.00;99.90
12446;DHT22;6287;50.984;7.022;2023-04-24T02:38:39;10.00;99.90
12446;DHT22;6287;50.984;7.022;2023-04-24T02:41:05;9.90;99.90
12446;DHT22;6287;50.984;7.022;2023-04-24T02:43:34;10.10;99.90
12446;DHT22;6287;50.984;7.022;2023-04-24T02:45:59;9.80;99.90
12446;DHT22;6287;50.984;7.022;2023-04-24T02:48:25;9.80;99.90
12446;DHT22;6287;50.984;7.022;2023-04-24T02:50:55;9.80;99.90
12446;DHT22;6287;50.984;7.022;2023-04-24T02:53:23;9.90;99.90
12446;DHT22;6287;50.984;7.022;2023-04-24T02:55:53;9.70;99.90
12446;DHT22;6287;50.984;7.022;2023-04-24T02:58:19;10.10;99.90
12446;DHT22;6287;50.984;7.022;2023-04-24T03:00:46;9.70;99.90
12446;DHT22;6287;50.984;7.022;2023-04-24T03:03:12;9.70;99.90
12446;DHT22;6287;50.984;7.022;2023-04-24T03:05:38;9.80;99.90
12446;DHT22;6287;50.984;7.022;2023-04-24T03:08:07;9.80;99.90
12446;DHT22;6287;50.984;7.022;2023-04-24T03:10:35;9.80;99.90
12446;DHT22;6287;50.984;7.022;2023-04-24T03:13:00;9.90;99.90
12446;DHT22;6287;50.984;7.022;2023-04-24T03:15:26;10.20;99.90
12446;DHT22;6287;50.984;7.022;2023-04-24T03:17:54;10.30;99.90
12446;DHT22;6287;50.984;7.022;2023-04-24T03:20:20;10.20;99.90
12446;DHT22;6287;50.984;7.022;2023-04-24T03:22:46;9.90;99.90
12446;DHT22;6287;50.984;7.022;2023-04-24T03:25:12;9.90;99.90
12446;DHT22;6287;50.984;7.022;2023-04-24T03:27:42;10.00;99.90
12446;DHT22;6287;50.984;7.022;2023-04-24T03:30:08;10.20;99.90
12446;DHT22;6287;50.984;7.022;2023-04-24T03:32:38;9.90;99.90
12446;DHT22;6287;50.984;7.022;2023-04-24T03:35:06;10.10;99.90
12446;DHT22;6287;50.984;7.022;2023-04-24T03:37:36;9.90;99.90
12446;DHT22;6287;50.984;7.022;2023-04-24T03:40:02;10.20;99.90
12446;DHT22;6287;50.984;7.022;2023-04-24T03:42:28;9.90;99.90
12446;DHT22;6287;50.984;7.022;2023-04-24T03:44:53;9.80;99.90
12446;DHT22;6287;50.984;7.022;2023-04-24T03:47:19;10.30;99.90
12446;DHT22;6287;50.984;7.022;2023-04-24T03:49:45;10.10;99.90
12446;DHT22;6287;50.984;7.022;2023-04-24T03:52:11;10.10;99.90
12446;DHT22;6287;50.984;7.022;2023-04-24T03:54:36;10.10;99.90
12446;DHT22;6287;50.984;7.022;2023-04-24T03:57:02;10.20;99.90
12446;DHT22;6287;50.984;7.022;2023-04-24T03:59:30;9.70;99.90
12446;DHT22;6287;50.984;7.022;2023-04-24T04:01:56;9.70;99.90
12446;DHT22;6287;50.984;7.022;2023-04-24T04:04:21;9.70;99.90
12446;DHT22;6287;50.984;7.022;2023-04-24T04:06:49;9.80;99.90
12446;DHT22;6287;50.984;7.022;2023-04-24T04:09:18;9.90;99.90
12446;DHT22;6287;50.984;7.022;2023-04-24T04:11:44;9.80;99.90
12446;DHT22;6287;50.984;7.022;2023-04-24T04:14:09;10.10;99.90
12446;DHT22;6287;50.984;7.022;2023-04-24T04:16:35;9.80;99.90
12446;DHT22;6287;50.984;7.022;2023-04-24T04:19:02;9.90;99.90
12446;DHT22;6287;50.984;7.022;2023-04-24T04:21:30;10.10;99.90
12446;DHT22;6287;50.984;7.022;2023-04-24T04:23:58;9.80;99.90
12446;DHT22;6287;50.984;7.022;2023-04-24T04:26:24;10.00;99.90
12446;DHT22;6287;50.984;7.022;2023-04-24T04:28:51;9.80;99.90
12446;DHT22;6287;50.984;7.022;2023-04-24T04:31:17;9.80;99.90
12446;DHT22;6287;50.984;7.022;2023-04-24T04:33:44;9.80;99.90
12446;DHT22;6287;50.984;7.022;2023-04-24T04:36:10;9.70;99.90
12446;DHT22;6287;50.984;7.022;2023-04-24T04:38:37;10.00;99.90
12446;DHT22;6287;50.984;7.022;2023-04-24T04:41:05;9.80;99.90
12446;DHT22;6287;50.984;7.022;2023-04-24T04:43:33;9.80;99.90
12446;DHT22;6287;50.984;7.022;2023-04-24T04:46:00;9.90;99.90
12446;DHT22;6287;50.984;7.022;2023-04-24T04:48:26;9.90;99.90
12446;DHT22;6287;50.984;7.022;2023-04-24T04:50:54;9.80;99.90
12446;DHT22;6287;50.984;7.022;2023-04-24T04:53:23;9.80;99.90
12446;DHT22;6287;50.984;7.022;2023-04-24T04:55:51;10.00;99.90
12446;DHT22;6287;50.984;7.022;2023-04-24T04:58:17;9.80;99.90
12446;DHT22;6287;50.984;7.022;2023-04-24T05:00:45;9.90;99.90
12446;DHT22;6287;50.984;7.022;2023-04-24T05:03:11;9.80;99.90
12446;DHT22;6287;50.984;7.022;2023-04-24T05:05:39;9.90;99.90
12446;DHT22;6287;50.984;7.022;2023-04-24T05:08:10;9.90;99.90
12446;DHT22;6287;50.984;7.022;2023-04-24T05:10:38;9.70;99.90
12446;DHT22;6287;50.984;7.022;2023-04-24T05:13:04;9.90;99.90
12446;DHT22;6287;50.984;7.022;2023-04-24T05:15:34;10.00;99.90
12446;DHT22;6287;50.984;7.022;2023-04-24T05:18:04;10.00;99.90
12446;DHT22;6287;50.984;7.022;2023-04-24T05:20:30;9.90;99.90
12446;DHT22;6287;50.984;7.022;2023-04-24T05:23:00;9.70;99.90
12446;DHT22;6287;50.984;7.022;2023-04-24T05:25:25;9.90;99.90
12446;DHT22;6287;50.984;7.022;2023-04-24T05:27:56;9.90;99.90
12446;DHT22;6287;50.984;7.022;2023-04-24T05:30:21;9.90;99.90
12446;DHT22;6287;50.984;7.022;2023-04-24T05:32:50;9.90;99.90
12446;DHT22;6287;50.984;7.022;2023-04-24T05:35:18;9.90;99.90
12446;DHT22;6287;50.984;7.022;2023-04-24T05:37:49;9.90;99.90
12446;DHT22;6287;50.984;7.022;2023-04-24T05:40:15;9.80;99.90
12446;DHT22;6287;50.984;7.022;2023-04-24T05:42:43;10.10;99.90
12446;DHT22;6287;50.984;7.022;2023-04-24T05:45:09;9.90;99.90
12446;DHT22;6287;50.984;7.022;2023-04-24T05:47:36;9.90;99.90
12446;DHT22;6287;50.984;7.022;2023-04-24T05:50:05;10.00;99.90
12446;DHT22;6287;50.984;7.022;2023-04-24T05:52:33;9.90;99.90
12446;DHT22;6287;50.984;7.022;2023-04-24T05:55:01;10.00;99.90
12446;DHT22;6287;50.984;7.022;2023-04-24T05:57:27;10.00;99.90
12446;DHT22;6287;50.984;7.022;2023-04-24T05:59:53;9.90;99.90
12446;DHT22;6287;50.984;7.022;2023-04-24T06:02:18;9.80;99.90
12446;DHT22;6287;50.984;7.022;2023-04-24T06:04:45;9.70;99.90
12446;DHT22;6287;50.984;7.022;2023-04-24T06:07:15;9.70;99.90
12446;DHT22;6287;50.984;7.022;2023-04-24T06:09:45;9.70;99.90
12446;DHT22;6287;50.984;7.022;2023-04-24T06:12:16;9.80;99.90
12446;DHT22;6287;50.984;7.022;2023-04-24T06:14:44;9.80;99.90
12446;DHT22;6287;50.984;7.022;2023-04-24T06:17:12;9.50;99.90
12446;DHT22;6287;50.984;7.022;2023-04-24T06:19:38;9.60;99.90
12446;DHT22;6287;50.984;7.022;2023-04-24T06:22:06;9.60;99.90
12446;DHT22;6287;50.984;7.022;2023-04-24T06:24:33;9.70;99.90
12446;DHT22;6287;50.984;7.022;2023-04-24T06:26:59;9.40;99.90
12446;DHT22;6287;50.984;7.022;2023-04-24T06:29:27;9.50;99.90
12446;DHT22;6287;50.984;7.022;2023-04-24T06:31:53;9.40;99.90
12446;DHT22;6287;50.984;7.022;2023-04-24T06:34:21;9.50;99.90
12446;DHT22;6287;50.984;7.022;2023-04-24T06:36:47;9.50;99.90
12446;DHT22;6287;50.984;7.022;2023-04-24T06:39:14;9.40;99.90
12446;DHT22;6287;50.984;7.022;2023-04-24T06:41:40;9.80;99.90
12446;DHT22;6287;50.984;7.022;2023-04-24T06:44:08;9.60;99.90
12446;DHT22;6287;50.984;7.022;2023-04-24T06:46:36;9.60;99.90
12446;DHT22;6287;50.984;7.022;2023-04-24T06:49:01;9.40;99.90
12446;DHT22;6287;50.984;7.022;2023-04-24T06:51:29;9.30;99.90
12446;DHT22;6287;50.984;7.022;2023-04-24T06:53:58;9.20;99.90
12446;DHT22;6287;50.984;7.022;2023-04-24T06:56:29;9.30;99.90
12446;DHT22;6287;50.984;7.022;2023-04-24T06:58:55;9.40;99.90
12446;DHT22;6287;50.984;7.022;2023-04-24T07:01:20;9.60;99.90
12446;DHT22;6287;50.984;7.022;2023-04-24T07:03:46;9.00;99.90
12446;DHT22;6287;50.984;7.022;2023-04-24T07:06:12;9.10;99.90
12446;DHT22;6287;50.984;7.022;2023-04-24T07:08:38;9.00;99.90
12446;DHT22;6287;50.984;7.022;2023-04-24T07:11:04;8.90;99.90
12446;DHT22;6287;50.984;7.022;2023-04-24T07:13:30;8.90;99.90
12446;DHT22;6287;50.984;7.022;2023-04-24T07:15:55;8.80;99.90
12446;DHT22;6287;50.984;7.022;2023-04-24T07:18:21;8.80;99.90
12446;DHT22;6287;50.984;7.022;2023-04-24T07:20:47;8.80;99.90
12446;DHT22;6287;50.984;7.022;2023-04-24T07:23:15;8.90;99.90
12446;DHT22;6287;50.984;7.022;2023-04-24T07:25:43;8.60;99.90
12446;DHT22;6287;50.984;7.022;2023-04-24T07:28:12;8.90;99.90
12446;DHT22;6287;50.984;7.022;2023-04-24T07:30:43;8.90;99.90
12446;DHT22;6287;50.984;7.022;2023-04-24T07:33:11;8.90;99.90
12446;DHT22;6287;50.984;7.022;2023-04-24T07:35:41;8.90;99.90
12446;DHT22;6287;50.984;7.022;2023-04-24T07:38:09;8.90;99.90
12446;DHT22;6287;50.984;7.022;2023-04-24T07:40:37;8.90;99.90
12446;DHT22;6287;50.984;7.022;2023-04-24T07:43:03;8.90;99.90
12446;DHT22;6287;50.984;7.022;2023-04-24T07:45:33;8.90;99.90
12446;DHT22;6287;50.984;7.022;2023-04-24T07:48:03;8.80;99.90
12446;DHT22;6287;50.984;7.022;2023-04-24T07:50:31;8.80;99.90
12446;DHT22;6287;50.984;7.022;2023-04-24T07:52:56;8.60;99.90
12446;DHT22;6287;50.984;7.022;2023-04-24T07:55:24;8.60;99.90
12446;DHT22;6287;50.984;7.022;2023-04-24T07:57:51;8.40;99.90
12446;DHT22;6287;50.984;7.022;2023-04-24T08:00:17;8.50;99.90
12446;DHT22;6287;50.984;7.022;2023-04-24T08:02:45;8.40;99.90
12446;DHT22;6287;50.984;7.022;2023-04-24T08:05:17;8.30;99.90
12446;DHT22;6287;50.984;7.022;2023-04-24T08:07:48;8.20;99.90
12446;DHT22;6287;50.984;7.022;2023-04-24T08:10:20;7.90;99.90
12446;DHT22;6287;50.984;7.022;2023-04-24T08:12:45;7.90;99.90
12446;DHT22;6287;50.984;7.022;2023-04-24T08:15:11;8.00;99.90
12446;DHT22;6287;50.984;7.022;2023-04-24T08:17:37;7.90;99.90
12446;DHT22;6287;50.984;7.022;2023-04-24T08:20:03;8.20;99.90
12446;DHT22;6287;50.984;7.022;2023-04-24T08:22:30;7.90;99.90
12446;DHT22;6287;50.984;7.022;2023-04-24T08:24:59;7.80;99.90
12446;DHT22;6287;50.984;7.022;2023-04-24T08:27:27;8.00;99.90
12446;DHT22;6287;50.984;7.022;2023-04-24T08:29:57;7.80;99.90
12446;DHT22;6287;50.984;7.022;2023-04-24T08:32:28;7.80;99.90
12446;DHT22;6287;50.984;7.022;2023-04-24T08:34:57;7.50;99.90
12446;DHT22;6287;50.984;7.022;2023-04-24T08:37:23;7.70;99.90
12446;DHT22;6287;50.984;7.022;2023-04-24T08:39:50;7.70;99.90
12446;DHT22;6287;50.984;7.022;2023-04-24T08:42:17;7.80;99.90
12446;DHT22;6287;50.984;7.022;2023-04-24T08:44:44;7.60;99.90
12446;DHT22;6287;50.984;7.022;2023-04-24T08:47:17;7.60;99.90
12446;DHT22;6287;50.984;7.022;2023-04-24T08:49:43;7.60;99.90
12446;DHT22;6287;50.984;7.022;2023-04-24T08:52:09;7.50;99.90
12446;DHT22;6287;50.984;7.022;2023-04-24T08:54:37;7.40;99.90
12446;DHT22;6287;50.984;7.022;2023-04-24T08:57:07;7.40;99.90
12446;DHT22;6287;50.984;7.022;2023-04-24T08:59:34;7.40;99.90
12446;DHT22;6287;50.984;7.022;2023-04-24T09:02:03;7.70;99.90
12446;DHT22;6287;50.984;7.022;2023-04-24T09:04:33;7.30;99.90
12446;DHT22;6287;50.984;7.022;2023-04-24T09:06:59;7.50;99.90
12446;DHT22;6287;50.984;7.022;2023-04-24T09:09:25;7.40;99.90
12446;DHT22;6287;50.984;7.022;2023-04-24T09:11:52;7.50;99.90
12446;DHT22;6287;50.984;7.022;2023-04-24T09:14:21;7.60;99.90
12446;DHT22;6287;50.984;7.022;2023-04-24T09:16:51;7.50;99.90
12446;DHT22;6287;50.984;7.022;2023-04-24T09:19:19;7.60;99.90
12446;DHT22;6287;50.984;7.022;2023-04-24T09:21:47;7.60;99.90
12446;DHT22;6287;50.984;7.022;2023-04-24T09:24:20;7.60;99.90
12446;DHT22;6287;50.984;7.022;2023-04-24T09:26:56;7.80;99.90
12446;DHT22;6287;50.984;7.022;2023-04-24T09:29:27;7.80;99.90
12446;DHT22;6287;50.984;7.022;2023-04-24T09:31:53;7.80;99.90
12446;DHT22;6287;50.984;7.022;2023-04-24T09:34:26;7.80;99.90
12446;DHT22;6287;50.984;7.022;2023-04-24T09:36:52;8.20;99.90
12446;DHT22;6287;50.984;7.022;2023-04-24T09:39:21;7.80;99.90
12446;DHT22;6287;50.984;7.022;2023-04-24T09:41:58;7.80;99.90
12446;DHT22;6287;50.984;7.022;2023-04-24T09:44:28;8.50;99.90
12446;DHT22;6287;50.984;7.022;2023-04-24T09:46:59;8.10;99.90
12446;DHT22;6287;50.984;7.022;2023-04-24T09:49:29;8.00;99.90
12446;DHT22;6287;50.984;7.022;2023-04-24T09:52:08;8.10;99.90
12446;DHT22;6287;50.984;7.022;2023-04-24T09:54:37;8.30;99.90
12446;DHT22;6287;50.984;7.022;2023-04-24T09:57:03;8.30;99.90
12446;DHT22;6287;50.984;7.022;2023-04-24T09:59:30;8.40;99.90
12446;DHT22;6287;50.984;7.022;2023-04-24T10:01:59;8.40;99.90
12446;DHT22;6287;50.984;7.022;2023-04-24T10:04:28;8.90;99.90
12446;DHT22;6287;50.984;7.022;2023-04-24T10:06:57;8.70;99.90
12446;DHT22;6287;50.984;7.022;2023-04-24T10:09:25;9.10;99.90
12446;DHT22;6287;50.984;7.022;2023-04-24T10:11:52;9.10;99.90
12446;DHT22;6287;50.984;7.022;2023-04-24T10:14:25;9.10;99.90
12446;DHT22;6287;50.984;7.022;2023-04-24T10:16:54;9.10;99.90
12446;DHT22;6287;50.984;7.022;2023-04-24T10:19:21;9.20;99.90
12446;DHT22;6287;50.984;7.022;2023-04-24T10:21:53;9.70;99.90
12446;DHT22;6287;50.984;7.022;2023-04-24T10:24:21;9.30;99.90
12446;DHT22;6287;50.984;7.022;2023-04-24T10:26:47;9.70;99.90
12446;DHT22;6287;50.984;7.022;2023-04-24T10:29:19;9.80;99.90
12446;DHT22;6287;50.984;7.022;2023-04-24T10:31:46;9.60;99.90
12446;DHT22;6287;50.984;7.022;2023-04-24T10:34:15;10.00;99.90
12446;DHT22;6287;50.984;7.022;2023-04-24T10:36:46;10.30;99.90
12446;DHT22;6287;50.984;7.022;2023-04-24T10:39:14;10.10;99.90
12446;DHT22;6287;50.984;7.022;2023-04-24T10:41:43;10.40;99.90
12446;DHT22;6287;50.984;7.022;2023-04-24T10:44:10;10.40;99.90
12446;DHT22;6287;50.984;7.022;2023-04-24T10:46:37;10.50;99.90
12446;DHT22;6287;50.984;7.022;2023-04-24T10:49:07;10.50;99.90
12446;DHT22;6287;50.984;7.022;2023-04-24T10:51:49;10.30;99.90
12446;DHT22;6287;50.984;7.022;2023-04-24T10:59:50;9.90;99.90
12446;DHT22;6287;50.984;7.022;2023-04-24T11:02:19;9.70;99.90
12446;DHT22;6287;50.984;7.022;2023-04-24T11:05:03;9.60;99.90
12446;DHT22;6287;50.984;7.022;2023-04-24T11:07:29;9.60;99.90
12446;DHT22;6287;50.984;7.022;2023-04-24T11:10:01;9.50;99.90
12446;DHT22;6287;50.984;7.022;2023-04-24T11:12:29;9.40;99.90
12446;DHT22;6287;50.984;7.022;2023-04-24T11:17:37;9.20;99.90
12446;DHT22;6287;50.984;7.022;2023-04-24T11:20:07;9.00;99.90
12446;DHT22;6287;50.984;7.022;2023-04-24T11:22:34;9.00;99.90
12446;DHT22;6287;50.984;7.022;2023-04-24T11:25:04;9.00;99.90
12446;DHT22;6287;50.984;7.022;2023-04-24T11:27:31;9.00;99.90
12446;DHT22;6287;50.984;7.022;2023-04-24T11:30:01;9.40;99.90
12446;DHT22;6287;50.984;7.022;2023-04-24T11:35:04;9.60;99.90
12446;DHT22;6287;50.984;7.022;2023-04-24T11:37:36;10.10;99.90
12446;DHT22;6287;50.984;7.022;2023-04-24T11:40:15;10.50;99.90
12446;DHT22;6287;50.984;7.022;2023-04-24T11:42:46;10.80;99.90
12446;DHT22;6287;50.984;7.022;2023-04-24T11:45:16;11.10;99.90
12446;DHT22;6287;50.984;7.022;2023-04-24T11:47:43;11.30;99.90
12446;DHT22;6287;50.984;7.022;2023-04-24T11:50:11;11.30;99.90
12446;DHT22;6287;50.984;7.022;2023-04-24T11:52:39;11.20;99.90
12446;DHT22;6287;50.984;7.022;2023-04-24T11:55:07;11.10;99.90
12446;DHT22;6287;50.984;7.022;2023-04-24T11:57:38;10.90;99.90
12446;DHT22;6287;50.984;7.022;2023-04-24T12:02:43;10.90;99.90
12446;DHT22;6287;50.984;7.022;2023-04-24T12:05:25;11.00;99.90
12446;DHT22;6287;50.984;7.022;2023-04-24T12:07:53;10.90;99.90
12446;DHT22;6287;50.984;7.022;2023-04-24T12:10:20;11.00;99.90
12446;DHT22;6287;50.984;7.022;2023-04-24T12:12:46;11.30;99.90
12446;DHT22;6287;50.984;7.022;2023-04-24T12:15:12;11.50;99.90
12446;DHT22;6287;50.984;7.022;2023-04-24T12:17:41;11.60;99.90
12446;DHT22;6287;50.984;7.022;2023-04-24T12:20:13;11.60;99.90
12446;DHT22;6287;50.984;7.022;2023-04-24T12:22:53;11.40;99.90
12446;DHT22;6287;50.984;7.022;2023-04-24T12:25:32;11.30;99.90
12446;DHT22;6287;50.984;7.022;2023-04-24T12:30:34;11.30;99.90
12446;DHT22;6287;50.984;7.022;2023-04-24T12:33:02;11.40;99.90
12446;DHT22;6287;50.984;7.022;2023-04-24T12:35:32;11.60;99.90
12446;DHT22;6287;50.984;7.022;2023-04-24T12:38:21;11.80;99.90
12446;DHT22;6287;50.984;7.022;2023-04-24T12:41:07;12.00;99.90
12446;DHT22;6287;50.984;7.022;2023-04-24T12:43:35;12.40;99.90
12446;DHT22;6287;50.984;7.022;2023-04-24T12:46:04;12.90;99.90
12446;DHT22;6287;50.984;7.022;2023-04-24T12:48:32;13.20;99.90
12446;DHT22;6287;50.984;7.022;2023-04-24T12:51:03;13.50;99.90
12446;DHT22;6287;50.984;7.022;2023-04-24T12:53:29;13.70;99.90
12446;DHT22;6287;50.984;7.022;2023-04-24T12:55:56;13.50;99.90
12446;DHT22;6287;50.984;7.022;2023-04-24T12:58:22;13.30;99.90
12446;DHT22;6287;50.984;7.022;2023-04-24T13:00:50;13.10;99.90
12446;DHT22;6287;50.984;7.022;2023-04-24T13:03:16;13.00;99.90
12446;DHT22;6287;50.984;7.022;2023-04-24T13:05:43;13.00;99.90
12446;DHT22;6287;50.984;7.022;2023-04-24T13:08:11;13.00;99.90
12446;DHT22;6287;50.984;7.022;2023-04-24T13:10:40;13.10;99.90
12446;DHT22;6287;50.984;7.022;2023-04-24T13:13:06;13.20;99.90
12446;DHT22;6287;50.984;7.022;2023-04-24T13:15:34;13.30;99.90
12446;DHT22;6287;50.984;7.022;2023-04-24T13:18:03;13.80;99.90
12446;DHT22;6287;50.984;7.022;2023-04-24T13:20:28;14.80;99.90
12446;DHT22;6287;50.984;7.022;2023-04-24T13:22:56;15.30;99.90
12446;DHT22;6287;50.984;7.022;2023-04-24T13:25:24;15.40;99.90
12446;DHT22;6287;50.984;7.022;2023-04-24T13:27:50;15.30;99.90
12446;DHT22;6287;50.984;7.022;2023-04-24T13:30:18;15.10;99.90
12446;DHT22;6287;50.984;7.022;2023-04-24T13:32:46;14.80;99.90
12446;DHT22;6287;50.984;7.022;2023-04-24T13:35:14;14.70;99.90
12446;DHT22;6287;50.984;7.022;2023-04-24T13:37:39;14.60;99.90
12446;DHT22;6287;50.984;7.022;2023-04-24T13:40:10;15.00;99.90
12446;DHT22;6287;50.984;7.022;2023-04-24T13:42:36;15.40;99.90
12446;DHT22;6287;50.984;7.022;2023-04-24T13:45:02;16.00;99.90
12446;DHT22;6287;50.984;7.022;2023-04-24T13:47:28;16.40;99.90
12446;DHT22;6287;50.984;7.022;2023-04-24T13:49:54;16.80;99.90
12446;DHT22;6287;50.984;7.022;2023-04-24T13:52:22;16.80;98.60
12446;DHT22;6287;50.984;7.022;2023-04-24T13:54:50;16.10;99.80
12446;DHT22;6287;50.984;7.022;2023-04-24T13:57:16;15.60;99.90
12446;DHT22;6287;50.984;7.022;2023-04-24T13:59:43;15.10;99.80
12446;DHT22;6287;50.984;7.022;2023-04-24T14:02:10;14.80;99.90
12446;DHT22;6287;50.984;7.022;2023-04-24T14:04:43;14.50;99.90
12446;DHT22;6287;50.984;7.022;2023-04-24T14:07:09;14.00;99.90
12446;DHT22;6287;50.984;7.022;2023-04-24T14:09:34;13.60;99.90
12446;DHT22;6287;50.984;7.022;2023-04-24T14:12:00;13.50;99.90
12446;DHT22;6287;50.984;7.022;2023-04-24T14:14:29;13.60;99.90
12446;DHT22;6287;50.984;7.022;2023-04-24T14:16:57;13.90;99.90
12446;DHT22;6287;50.984;7.022;2023-04-24T14:19:26;14.70;99.90
12446;DHT22;6287;50.984;7.022;2023-04-24T14:21:51;15.30;99.90
12446;DHT22;6287;50.984;7.022;2023-04-24T14:24:17;15.90;99.90
12446;DHT22;6287;50.984;7.022;2023-04-24T14:26:45;16.70;99.90
12446;DHT22;6287;50.984;7.022;2023-04-24T14:29:10;17.20;97.20
12446;DHT22;6287;50.984;7.022;2023-04-24T14:31:36;17.10;97.50
12446;DHT22;6287;50.984;7.022;2023-04-24T14:34:02;16.60;97.20
12446;DHT22;6287;50.984;7.022;2023-04-24T14:36:27;15.80;95.70
12446;DHT22;6287;50.984;7.022;2023-04-24T14:38:58;15.20;97.60
12446;DHT22;6287;50.984;7.022;2023-04-24T14:41:28;15.20;98.90
12446;DHT22;6287;50.984;7.022;2023-04-24T14:43:54;15.20;98.00
12446;DHT22;6287;50.984;7.022;2023-04-24T14:46:22;15.80;98.50
12446;DHT22;6287;50.984;7.022;2023-04-24T14:48:50;16.40;98.10
12446;DHT22;6287;50.984;7.022;2023-04-24T14:51:16;16.60;97.00
12446;DHT22;6287;50.984;7.022;2023-04-24T14:53:41;16.40;96.70
12446;DHT22;6287;50.984;7.022;2023-04-24T14:56:09;16.00;95.40
12446;DHT22;6287;50.984;7.022;2023-04-24T14:58:35;15.70;97.80
12446;DHT22;6287;50.984;7.022;2023-04-24T15:01:01;15.50;96.90
12446;DHT22;6287;50.984;7.022;2023-04-24T15:03:34;15.40;98.50
12446;DHT22;6287;50.984;7.022;2023-04-24T15:06:02;15.10;99.60
12446;DHT22;6287;50.984;7.022;2023-04-24T15:08:28;14.80;98.60
12446;DHT22;6287;50.984;7.022;2023-04-24T15:10:53;14.70;98.70
12446;DHT22;6287;50.984;7.022;2023-04-24T15:13:19;14.60;99.60
12446;DHT22;6287;50.984;7.022;2023-04-24T15:15:46;14.70;98.60
12446;DHT22;6287;50.984;7.022;2023-04-24T15:18:15;15.30;98.50
12446;DHT22;6287;50.984;7.022;2023-04-24T15:20:40;15.60;97.40
12446;DHT22;6287;50.984;7.022;2023-04-24T15:23:08;15.80;98.50
12446;DHT22;6287;50.984;7.022;2023-04-24T15:25:37;16.00;96.70
12446;DHT22;6287;50.984;7.022;2023-04-24T15:28:05;16.20;96.70
12446;DHT22;6287;50.984;7.022;2023-04-24T15:30:34;16.60;97.70
12446;DHT22;6287;50.984;7.022;2023-04-24T15:33:00;17.00;95.40
12446;DHT22;6287;50.984;7.022;2023-04-24T15:35:29;17.00;95.30
12446;DHT22;6287;50.984;7.022;2023-04-24T15:38:00;17.10;95.00
12446;DHT22;6287;50.984;7.022;2023-04-24T15:40:32;16.90;94.40
12446;DHT22;6287;50.984;7.022;2023-04-24T15:42:57;16.70;95.10
12446;DHT22;6287;50.984;7.022;2023-04-24T15:45:23;16.70;94.40
12446;DHT22;6287;50.984;7.022;2023-04-24T15:47:52;16.60;94.40
12446;DHT22;6287;50.984;7.022;2023-04-24T15:50:17;16.50;95.70
12446;DHT22;6287;50.984;7.022;2023-04-24T15:52:46;16.20;95.20
12446;DHT22;6287;50.984;7.022;2023-04-24T15:55:12;15.90;95.80
12446;DHT22;6287;50.984;7.022;2023-04-24T15:57:38;15.80;97.00
12446;DHT22;6287;50.984;7.022;2023-04-24T16:00:07;15.60;95.90
12446;DHT22;6287;50.984;7.022;2023-04-24T16:02:34;15.40;96.40
12446;DHT22;6287;50.984;7.022;2023-04-24T16:05:02;15.20;95.50
12446;DHT22;6287;50.984;7.022;2023-04-24T16:07:28;15.00;97.10
12446;DHT22;6287;50.984;7.022;2023-04-24T16:09:58;15.00;96.70
12446;DHT22;6287;50.984;7.022;2023-04-24T16:12:26;14.80;96.30